Houston, South Dakota
Current Conditions -  °F | °C
As of 12:15 PM on Wednesday 26 Nov 2014 (Local Time) from K9V9 Reporting Station
Overcast Overcast  
Wind Chill:   Ceiling: 10000
Heat Index: 20°   Visibility: 10mi
Dew Point:   Wind: 9mph
Humidity: 63%   Direction: 340°NNW
Pressure: 30.34"   Gusts: 16mph
Location:  43.8859°N, 99.8336°W
Report Text: K9V9 261815Z AUTO 34008G14KT 10SM OVC100 M07/M13 A3034 RMK AO2 T10671126
Loading
Personal Weather Stations






























Interactive Weather Map New forecast layout! Learn more

10-Day Weather Forecast

Advertisements
Track Severe Weather on mobile